createdAt,value
2019-03-06T00:02:46.715Z,5.44
2019-03-06T00:05:48.709Z,5.42
2019-03-06T00:08:50.677Z,5.39
2019-03-06T00:11:52.796Z,5.37
2019-03-06T00:14:54.798Z,5.32
2019-03-06T00:17:56.725Z,5.29
2019-03-06T00:20:58.673Z,5.25
2019-03-06T00:24:00.711Z,5.19
2019-03-06T00:27:02.750Z,5.10
2019-03-06T00:30:08.337Z,4.98
2019-03-06T00:33:10.399Z,4.74
2019-03-06T00:36:14.186Z,4.50
2019-03-06T00:39:16.190Z,4.38
2019-03-06T00:42:18.332Z,4.20
2019-03-06T00:45:20.271Z,4.08
2019-03-06T00:48:22.219Z,3.97
2019-03-06T00:51:24.137Z,3.90
2019-03-06T00:54:26.136Z,3.85
2019-03-06T00:57:28.048Z,3.88
2019-03-06T01:00:30.033Z,3.96
2019-03-06T01:03:31.947Z,4.08
2019-03-06T01:06:34.088Z,4.17
2019-03-06T01:09:36.029Z,4.22
2019-03-06T01:12:38.658Z,4.20
2019-03-06T01:15:40.602Z,4.20
2019-03-06T01:18:42.550Z,4.12
2019-03-06T01:21:44.835Z,4.02
2019-03-06T01:24:46.796Z,3.94
2019-03-06T01:27:48.753Z,3.84
2019-03-06T01:30:50.694Z,3.75
2019-03-06T01:33:54.487Z,3.67
2019-03-06T01:36:58.209Z,3.58
2019-03-06T01:40:01.998Z,3.51
2019-03-06T01:43:11.510Z,3.45
2019-03-06T01:46:13.969Z,3.43
2019-03-06T01:49:15.968Z,3.36
2019-03-06T01:52:17.975Z,3.29
2019-03-06T01:55:19.975Z,3.28
2019-03-06T01:58:21.989Z,3.21
2019-03-06T02:01:23.975Z,3.15
2019-03-06T02:04:26.535Z,3.14
2019-03-06T02:07:28.429Z,3.07
2019-03-06T02:10:31.469Z,3.03
2019-03-06T02:13:33.391Z,2.99
2019-03-06T02:16:35.349Z,2.91
2019-03-06T02:19:37.341Z,2.85
2019-03-06T02:22:39.604Z,2.78
2019-03-06T02:25:41.585Z,2.73
2019-03-06T02:28:43.506Z,2.72
2019-03-06T02:31:45.511Z,2.66
2019-03-06T02:34:47.444Z,2.67
2019-03-06T02:37:49.400Z,2.68
2019-03-06T02:40:51.317Z,2.69
2019-03-06T02:43:53.316Z,2.66
2019-03-06T02:46:57.394Z,2.65
2019-03-06T02:49:59.348Z,2.63
2019-03-06T02:53:01.277Z,2.61
2019-03-06T02:56:03.293Z,2.65
2019-03-06T02:59:07.150Z,2.68
2019-03-06T03:02:11.059Z,2.64
2019-03-06T03:05:17.586Z,2.65
2019-03-06T03:08:19.550Z,2.63
2019-03-06T03:11:21.585Z,2.57
2019-03-06T03:14:23.511Z,2.51
2019-03-06T03:17:25.410Z,2.47
2019-03-06T03:20:27.339Z,2.49
2019-03-06T03:23:29.399Z,2.51
2019-03-06T03:26:31.304Z,2.54
2019-03-06T03:29:33.310Z,2.52
2019-03-06T03:32:35.267Z,2.52
2019-03-06T03:35:37.223Z,2.50
2019-03-06T03:38:39.177Z,2.44
2019-03-06T03:41:41.216Z,2.34
2019-03-06T03:44:43.210Z,2.30
2019-03-06T03:47:45.269Z,2.26
2019-03-06T03:50:47.816Z,2.20
2019-03-06T03:53:49.773Z,2.11
2019-03-06T03:56:51.845Z,2.05
2019-03-06T03:59:55.784Z,1.99
2019-03-06T04:02:58.083Z,1.99
2019-03-06T04:06:00.105Z,1.95
2019-03-06T04:09:02.521Z,1.94
2019-03-06T04:12:06.333Z,1.92
2019-03-06T04:15:11.691Z,1.90
2019-03-06T04:18:13.873Z,1.90
2019-03-06T04:21:15.830Z,1.91
2019-03-06T04:24:17.828Z,1.87
2019-03-06T04:27:19.797Z,1.83
2019-03-06T04:30:21.800Z,1.78
2019-03-06T04:33:23.794Z,1.75
2019-03-06T04:36:25.764Z,1.66
2019-03-06T04:39:27.690Z,1.63
2019-03-06T04:42:29.619Z,1.64
2019-03-06T04:45:31.552Z,1.63
2019-03-06T04:48:33.565Z,1.63
2019-03-06T04:51:35.544Z,1.62
2019-03-06T04:54:37.542Z,1.61
2019-03-06T04:57:39.557Z,1.60
2019-03-06T05:00:41.509Z,1.62
2019-03-06T05:03:43.503Z,1.62
2019-03-06T05:06:45.452Z,1.63
2019-03-06T05:09:47.407Z,1.58
2019-03-06T05:12:49.301Z,1.55
2019-03-06T05:15:51.429Z,1.51
2019-03-06T05:18:55.229Z,1.48
2019-03-06T05:21:57.197Z,1.47
2019-03-06T05:24:59.220Z,1.44
2019-03-06T05:28:01.117Z,1.47
2019-03-06T05:31:03.035Z,1.52
2019-03-06T05:34:05.051Z,1.53
2019-03-06T05:37:41.478Z,1.57
2019-03-06T05:40:43.515Z,1.64
2019-03-06T05:43:45.461Z,1.73
2019-03-06T05:46:47.423Z,1.89
2019-03-06T05:49:49.468Z,2.16
2019-03-06T05:52:51.380Z,2.54
2019-03-06T05:55:53.336Z,2.97
2019-03-06T05:58:55.405Z,3.33
2019-03-06T06:01:57.328Z,3.66
2019-03-06T06:04:59.407Z,4.10
2019-03-06T06:08:01.415Z,4.59
2019-03-06T06:11:03.608Z,5.04
2019-03-06T06:14:05.567Z,5.52
2019-03-06T06:17:07.537Z,5.98
2019-03-06T06:20:11.697Z,6.42
2019-03-06T06:23:31.829Z,6.93
2019-03-06T06:26:33.876Z,7.15
2019-03-06T06:29:35.873Z,7.38
2019-03-06T06:32:37.866Z,7.52
2019-03-06T06:35:39.842Z,7.56
2019-03-06T06:38:43.077Z,7.59
2019-03-06T06:41:45.209Z,7.79
2019-03-06T06:44:47.174Z,8.14
2019-03-06T06:48:11.686Z,8.56
2019-03-06T06:51:27.122Z,8.94
2019-03-06T06:54:50.210Z,9.19
2019-03-06T06:58:14.242Z,9.52
2019-03-06T07:01:27.492Z,9.65
2019-03-06T07:04:46.733Z,9.78
2019-03-06T07:07:56.351Z,9.88
2019-03-06T07:11:00.197Z,9.96
2019-03-06T07:14:07.001Z,9.96
2019-03-06T07:17:10.837Z,10.09
2019-03-06T07:20:14.763Z,10.34
2019-03-06T07:23:18.605Z,10.58
2019-03-06T07:26:31.347Z,10.75
2019-03-06T07:29:38.951Z,11.01
2019-03-06T07:32:45.877Z,11.15
2019-03-06T07:36:10.625Z,11.30
2019-03-06T07:39:19.633Z,11.45
2019-03-06T07:42:32.531Z,11.62
2019-03-06T07:45:51.358Z,11.80
2019-03-06T07:48:55.616Z,11.92
2019-03-06T07:52:09.537Z,12.09
2019-03-06T07:55:22.136Z,12.19
2019-03-06T07:58:47.671Z,12.15
2019-03-06T08:01:53.413Z,12.18
2019-03-06T08:04:55.404Z,12.32
2019-03-06T08:07:57.328Z,12.45
2019-03-06T08:11:00.595Z,12.59
2019-03-06T08:14:07.329Z,12.62
2019-03-06T08:17:27.862Z,12.69
2019-03-06T08:20:48.494Z,12.66
2019-03-06T08:23:55.123Z,12.63
2019-03-06T08:26:57.124Z,12.58
2019-03-06T08:29:59.100Z,12.41
2019-03-06T08:33:00.998Z,12.26
2019-03-06T08:36:03.090Z,12.19
2019-03-06T08:39:16.957Z,12.00
2019-03-06T08:42:19.463Z,11.90
2019-03-06T08:45:23.200Z,11.79
2019-03-06T08:48:29.974Z,11.70
2019-03-06T08:51:33.750Z,11.58
2019-03-06T08:54:40.890Z,11.62
2019-03-06T08:58:00.982Z,11.57
2019-03-06T09:01:35.376Z,11.54
2019-03-06T09:04:43.038Z,11.43
2019-03-06T09:07:47.105Z,11.26
2019-03-06T09:10:51.935Z,11.18
2019-03-06T09:14:07.831Z,11.14
2019-03-06T09:17:26.860Z,11.25
2019-03-06T09:20:47.164Z,11.22
2019-03-06T09:23:50.921Z,11.23
2019-03-06T09:26:54.997Z,11.16
2019-03-06T09:30:01.798Z,11.24
2019-03-06T09:33:22.121Z,11.20
2019-03-06T09:36:32.238Z,11.16
2019-03-06T09:39:54.595Z,11.14
2019-03-06T09:43:04.015Z,11.16
2019-03-06T09:46:16.926Z,11.16
2019-03-06T09:49:26.808Z,11.11
2019-03-06T09:52:39.609Z,11.07
2019-03-06T09:55:46.372Z,11.00
2019-03-06T09:58:53.607Z,11.01
2019-03-06T10:02:06.859Z,11.01
2019-03-06T10:05:18.155Z,11.02
2019-03-06T10:08:27.774Z,11.02
2019-03-06T10:11:31.619Z,11.09
2019-03-06T10:14:47.443Z,11.14
2019-03-06T10:17:51.304Z,11.18
2019-03-06T10:20:53.323Z,11.20
2019-03-06T10:23:55.339Z,11.18
2019-03-06T10:26:57.474Z,11.13
2019-03-06T10:29:59.849Z,11.16
2019-03-06T10:33:01.791Z,11.18
2019-03-06T10:36:03.717Z,11.23
2019-03-06T10:39:06.013Z,11.23
2019-03-06T10:42:09.796Z,11.23
2019-03-06T10:48:27.794Z,11.30
2019-03-06T10:51:31.078Z,11.26
2019-03-06T10:54:33.379Z,11.34
2019-03-06T10:57:35.992Z,11.37
2019-03-06T11:00:50.615Z,11.38
2019-03-06T11:03:54.433Z,11.43
2019-03-06T11:06:56.544Z,11.39
2019-03-06T11:09:58.911Z,11.39
2019-03-06T11:13:02.972Z,11.51
2019-03-06T11:16:07.145Z,11.47
2019-03-06T11:19:09.325Z,11.48
2019-03-06T11:22:11.846Z,11.43
2019-03-06T11:25:16.671Z,11.48
2019-03-06T11:28:18.851Z,11.52
2019-03-06T11:31:20.893Z,11.39
2019-03-06T11:34:22.876Z,11.34
2019-03-06T11:37:25.808Z,11.43
2019-03-06T11:40:28.096Z,11.53
2019-03-06T11:43:33.259Z,11.52
2019-03-06T11:46:35.473Z,11.54
2019-03-06T11:49:37.389Z,11.58
2019-03-06T11:52:39.409Z,11.63
2019-03-06T11:55:41.570Z,11.57
2019-03-06T11:58:43.711Z,11.59
2019-03-06T12:01:48.295Z,11.58
2019-03-06T12:04:50.584Z,11.62
2019-03-06T12:07:52.586Z,11.57
2019-03-06T12:10:55.066Z,11.56
2019-03-06T12:13:57.344Z,11.61
2019-03-06T12:16:59.686Z,11.56
2019-03-06T12:20:08.299Z,11.59
2019-03-06T12:23:07.158Z,11.59
2019-03-06T12:26:09.231Z,11.69
2019-03-06T12:29:11.148Z,11.90
2019-03-06T12:32:13.308Z,11.95
2019-03-06T12:35:16.681Z,11.97
2019-03-06T12:38:20.135Z,12.04
2019-03-06T12:41:23.231Z,11.96
2019-03-06T12:44:25.247Z,11.86
2019-03-06T12:47:27.477Z,11.84
2019-03-06T12:50:39.492Z,11.81
2019-03-06T12:53:41.514Z,11.83
2019-03-06T12:56:43.595Z,11.83
2019-03-06T12:59:45.567Z,11.84
2019-03-06T13:02:47.947Z,11.84
2019-03-06T13:05:49.850Z,11.79
2019-03-06T13:08:51.883Z,11.70
2019-03-06T13:11:53.820Z,11.67
2019-03-06T13:14:56.301Z,11.70
2019-03-06T13:17:58.365Z,11.72
2019-03-06T13:21:00.366Z,11.78
2019-03-06T13:24:02.545Z,11.77
2019-03-06T13:27:05.951Z,11.76
2019-03-06T13:30:11.299Z,11.73
2019-03-06T13:33:31.820Z,11.66
2019-03-06T13:36:33.750Z,11.56
2019-03-06T13:39:35.771Z,11.52
2019-03-06T13:42:37.732Z,11.53
2019-03-06T13:45:39.946Z,11.55
2019-03-06T13:48:41.920Z,11.56
2019-03-06T13:51:43.912Z,11.49
2019-03-06T13:54:46.214Z,11.49
2019-03-06T13:57:48.373Z,11.49
2019-03-06T14:00:50.721Z,11.42
2019-03-06T14:03:53.252Z,11.46
2019-03-06T14:06:55.251Z,11.46
2019-03-06T14:09:57.479Z,11.46
2019-03-06T14:12:59.453Z,11.51
2019-03-06T14:16:01.511Z,11.52
2019-03-06T14:19:03.565Z,11.53
2019-03-06T14:22:05.574Z,11.52
2019-03-06T14:25:09.586Z,11.48
2019-03-06T14:28:12.033Z,11.55
2019-03-06T14:31:15.484Z,11.57
2019-03-06T14:34:17.526Z,11.57
2019-03-06T14:37:19.614Z,11.61
2019-03-06T14:40:30.811Z,11.61
2019-03-06T14:43:32.883Z,11.61
2019-03-06T14:46:34.780Z,11.57
2019-03-06T14:49:36.716Z,11.58
2019-03-06T14:52:38.648Z,11.43
2019-03-06T14:55:40.776Z,11.34
2019-03-06T14:58:42.732Z,11.30
2019-03-06T15:01:44.682Z,11.24
2019-03-06T15:04:46.691Z,11.15
2019-03-06T15:07:48.672Z,11.16
2019-03-06T15:10:50.993Z,11.15
2019-03-06T15:13:53.936Z,11.13
2019-03-06T15:16:55.875Z,11.08
2019-03-06T15:19:58.086Z,11.11
2019-03-06T15:23:00.058Z,11.07
2019-03-06T15:26:02.099Z,11.02
2019-03-06T15:29:04.209Z,10.97
2019-03-06T15:32:06.298Z,10.96
2019-03-06T15:35:10.600Z,10.96
2019-03-06T15:38:13.015Z,10.89
2019-03-06T15:41:15.066Z,10.78
2019-03-06T15:44:17.313Z,10.68
2019-03-06T15:47:19.757Z,10.59
2019-03-06T15:50:21.901Z,10.51
2019-03-06T15:53:25.018Z,10.43
2019-03-06T15:56:27.783Z,10.38
2019-03-06T15:59:29.736Z,10.32
2019-03-06T16:02:31.844Z,10.24
2019-03-06T16:05:34.970Z,10.17
2019-03-06T16:08:36.900Z,10.10
2019-03-06T16:11:39.315Z,9.96
2019-03-06T16:14:41.304Z,9.86
2019-03-06T16:17:43.430Z,9.75
2019-03-06T16:20:46.022Z,9.61
2019-03-06T16:23:48.164Z,9.52
2019-03-06T16:26:50.929Z,9.43
2019-03-06T16:29:52.894Z,9.34
2019-03-06T16:32:54.961Z,9.21
2019-03-06T16:35:57.055Z,9.10
2019-03-06T16:38:59.253Z,8.97
2019-03-06T16:42:01.158Z,8.88
2019-03-06T16:45:05.215Z,8.69
2019-03-06T16:48:07.282Z,8.46
2019-03-06T16:51:09.683Z,8.33
2019-03-06T16:54:11.844Z,8.29
2019-03-06T16:57:14.202Z,8.24
2019-03-06T17:00:29.346Z,8.19
2019-03-06T17:03:32.219Z,8.13
2019-03-06T17:06:34.211Z,8.04
2019-03-06T17:09:36.723Z,7.95
2019-03-06T17:12:38.855Z,7.91
2019-03-06T17:15:40.839Z,7.92
2019-03-06T17:18:44.220Z,7.89
2019-03-06T17:21:46.251Z,7.85
2019-03-06T17:24:48.254Z,7.77
2019-03-06T17:27:50.522Z,7.65
2019-03-06T17:30:52.464Z,7.62
2019-03-06T17:33:54.414Z,7.60
2019-03-06T17:36:57.460Z,7.55
2019-03-06T17:39:59.652Z,7.52
2019-03-06T17:43:01.854Z,7.48
2019-03-06T17:46:06.569Z,7.45
2019-03-06T17:49:10.763Z,7.40
2019-03-06T17:52:12.664Z,7.36
2019-03-06T17:55:17.355Z,7.31
2019-03-06T17:58:20.629Z,7.24
2019-03-06T18:01:22.702Z,7.17
2019-03-06T18:04:24.633Z,7.17
2019-03-06T18:07:26.579Z,7.21
2019-03-06T18:10:28.831Z,7.23
2019-03-06T18:13:32.070Z,7.21
2019-03-06T18:16:34.066Z,7.20
2019-03-06T18:19:37.955Z,7.17
2019-03-06T18:22:43.516Z,7.13
2019-03-06T18:25:46.251Z,7.07
2019-03-06T18:28:48.306Z,6.99
2019-03-06T18:31:50.283Z,6.95
2019-03-06T18:34:52.603Z,6.88
2019-03-06T18:37:55.902Z,6.83
2019-03-06T18:40:58.439Z,6.82
2019-03-06T18:44:03.120Z,6.77
2019-03-06T18:47:07.518Z,6.72
2019-03-06T18:50:12.320Z,6.72
2019-03-06T18:53:16.365Z,6.73
2019-03-06T18:56:22.248Z,6.71
2019-03-06T18:59:24.727Z,6.72
2019-03-06T19:02:26.783Z,6.71
2019-03-06T19:05:28.752Z,6.66
2019-03-06T19:08:31.616Z,6.64
2019-03-06T19:11:35.558Z,6.61
2019-03-06T19:14:39.901Z,6.60
2019-03-06T19:17:42.322Z,6.55
2019-03-06T19:20:44.421Z,6.52
2019-03-06T19:23:48.209Z,6.40
2019-03-06T19:26:52.846Z,6.19
2019-03-06T19:29:57.326Z,6.02
2019-03-06T19:32:59.676Z,5.89
2019-03-06T19:36:02.948Z,5.75
2019-03-06T19:39:06.678Z,5.62
2019-03-06T19:42:10.214Z,5.54
2019-03-06T19:45:14.889Z,5.50
2019-03-06T19:48:17.790Z,5.45
2019-03-06T19:51:22.564Z,5.41
2019-03-06T19:54:27.322Z,5.33
2019-03-06T19:57:33.078Z,5.31
2019-03-06T20:00:37.066Z,5.30
2019-03-06T20:03:39.892Z,5.24
2019-03-06T20:06:42.478Z,5.24
2019-03-06T20:09:47.527Z,5.24
2019-03-06T20:12:49.668Z,5.21
2019-03-06T20:15:52.171Z,5.18
2019-03-06T20:18:54.674Z,5.15
2019-03-06T20:21:56.772Z,5.13
2019-03-06T20:25:00.320Z,5.07
2019-03-06T20:28:02.630Z,5.01
2019-03-06T20:31:05.319Z,5.03
2019-03-06T20:34:10.643Z,4.96
2019-03-06T20:37:12.736Z,4.95
2019-03-06T20:40:14.799Z,4.91
2019-03-06T20:43:17.185Z,4.90
2019-03-06T20:46:22.212Z,4.90
2019-03-06T20:49:23.948Z,4.91
2019-03-06T20:52:27.154Z,4.95
2019-03-06T20:55:31.512Z,5.03
2019-03-06T20:58:37.448Z,5.11
2019-03-06T21:01:40.096Z,5.21
2019-03-06T21:04:42.155Z,5.28
2019-03-06T21:07:45.127Z,5.34
2019-03-06T21:10:48.123Z,5.37
2019-03-06T21:13:51.609Z,5.38
2019-03-06T21:16:55.045Z,5.32
2019-03-06T21:20:00.397Z,5.30
2019-03-06T21:23:02.414Z,5.27
2019-03-06T21:26:05.376Z,5.21
2019-03-06T21:29:07.462Z,5.19
2019-03-06T21:32:09.458Z,5.17
2019-03-06T21:35:12.788Z,5.19
2019-03-06T21:38:14.883Z,5.10
2019-03-06T21:41:17.369Z,5.08
2019-03-06T21:44:19.419Z,5.09
2019-03-06T21:47:24.333Z,5.02
2019-03-06T21:50:28.065Z,4.96
2019-03-06T21:53:30.064Z,4.97
2019-03-06T21:56:32.029Z,5.02
2019-03-06T21:59:34.064Z,5.03
2019-03-06T22:02:36.166Z,4.99
2019-03-06T22:05:38.157Z,4.96
2019-03-06T22:08:40.365Z,4.93
2019-03-06T22:11:43.536Z,4.85
2019-03-06T22:14:45.502Z,4.83
2019-03-06T22:17:47.952Z,4.82
2019-03-06T22:20:49.851Z,4.83
2019-03-06T22:23:51.833Z,4.87
2019-03-06T22:26:53.787Z,4.86
2019-03-06T22:29:55.793Z,4.88
2019-03-06T22:32:59.585Z,4.92
2019-03-06T22:36:01.736Z,4.90
2019-03-06T22:39:05.038Z,4.85
2019-03-06T22:42:08.986Z,4.82
2019-03-06T22:45:13.487Z,4.82
2019-03-06T22:48:15.430Z,4.83
2019-03-06T22:51:17.426Z,4.86
2019-03-06T22:54:19.402Z,4.90
2019-03-06T22:57:21.330Z,4.92
2019-03-06T23:00:29.760Z,4.90
2019-03-06T23:03:33.628Z,4.94
2019-03-06T23:06:35.829Z,5.03
2019-03-06T23:09:37.714Z,5.08
2019-03-06T23:12:39.665Z,5.09
2019-03-06T23:15:41.597Z,5.11
2019-03-06T23:18:43.792Z,4.99
2019-03-06T23:21:45.718Z,4.96
2019-03-06T23:24:48.757Z,4.93
2019-03-06T23:27:51.113Z,4.84
2019-03-06T23:30:53.093Z,4.71
2019-03-06T23:33:55.120Z,4.56
2019-03-06T23:36:57.151Z,4.49
2019-03-06T23:39:59.050Z,4.36
2019-03-06T23:43:01.107Z,4.36
2019-03-06T23:46:03.029Z,4.43
2019-03-06T23:49:05.035Z,4.49
2019-03-06T23:52:08.760Z,4.51
2019-03-06T23:55:12.434Z,4.53
2019-03-06T23:58:14.354Z,4.50
